AEE378 LGAV-LGMK
Flight info
| Callsign | AEE378 |
|---|---|
| Flight time | 0h 39m |
| Altitude | 15000 |
| Route | KEA L995 VARIX |
| Aircraft | A320/M-SDE3FGHIRWY/LB1 |
Departure
| Time | 2026-04-21 18:32 |
|---|---|
| Airport | Athens Eleftherios Venizelos International Airport (LGAV) |
Arrival
| Time | 2026-04-21 19:12 |
|---|---|
| Airport | Mykonos Island National Airport (LGMK) |
| Time | Latitude | Longitude | Altitude | Speed | Heading |
|---|---|---|---|---|---|
| 2026-04-21 18:12 | 37.93561 | 23.94812 | 284 ft | 0 kts | 318° |
| 2026-04-21 18:21 | 37.93553 | 23.94822 | 285 ft | 3 kts | 318° |
| 2026-04-21 18:21 | 37.93538 | 23.94839 | 284 ft | 3 kts | 319° |
| 2026-04-21 18:21 | 37.93522 | 23.94855 | 286 ft | 3 kts | 325° |
| 2026-04-21 18:21 | 37.93506 | 23.94867 | 287 ft | 3 kts | 351° |
| 2026-04-21 18:22 | 37.93493 | 23.94867 | 287 ft | 1 kts | 35° |
| 2026-04-21 18:22 | 37.93491 | 23.94866 | 288 ft | 0 kts | 37° |
| 2026-04-21 18:24 | 37.93492 | 23.94867 | 284 ft | 1 kts | 37° |
| 2026-04-21 18:24 | 37.93509 | 23.94882 | 284 ft | 5 kts | 37° |
| 2026-04-21 18:25 | 37.93544 | 23.94916 | 283 ft | 8 kts | 37° |
| 2026-04-21 18:25 | 37.93598 | 23.94967 | 285 ft | 11 kts | 36° |
| 2026-04-21 18:25 | 37.93670 | 23.95035 | 283 ft | 15 kts | 37° |
| 2026-04-21 18:25 | 37.93723 | 23.95087 | 282 ft | 1 kts | 40° |
| 2026-04-21 18:26 | 37.93725 | 23.95102 | 282 ft | 3 kts | 92° |
| 2026-04-21 18:26 | 37.93710 | 23.95131 | 282 ft | 5 kts | 128° |
| 2026-04-21 18:26 | 37.93679 | 23.95179 | 282 ft | 9 kts | 130° |
| 2026-04-21 18:26 | 37.93653 | 23.95227 | 281 ft | 7 kts | 110° |
| 2026-04-21 18:27 | 37.93671 | 23.95294 | 281 ft | 10 kts | 52° |
| 2026-04-21 18:27 | 37.93732 | 23.95357 | 284 ft | 13 kts | 37° |
| 2026-04-21 18:27 | 37.93815 | 23.95437 | 279 ft | 17 kts | 38° |
| 2026-04-21 18:27 | 37.93920 | 23.95535 | 278 ft | 20 kts | 36° |
| 2026-04-21 18:28 | 37.94042 | 23.95654 | 277 ft | 24 kts | 38° |
| 2026-04-21 18:28 | 37.94184 | 23.95792 | 276 ft | 27 kts | 37° |
| 2026-04-21 18:28 | 37.94338 | 23.95934 | 278 ft | 22 kts | 36° |
| 2026-04-21 18:28 | 37.94453 | 23.96043 | 276 ft | 23 kts | 36° |
| 2026-04-21 18:29 | 37.94589 | 23.96173 | 271 ft | 26 kts | 37° |
| 2026-04-21 18:29 | 37.94734 | 23.96311 | 269 ft | 24 kts | 37° |
| 2026-04-21 18:29 | 37.94877 | 23.96447 | 268 ft | 27 kts | 37° |
| 2026-04-21 18:29 | 37.95040 | 23.96601 | 267 ft | 31 kts | 38° |
| 2026-04-21 18:30 | 37.95213 | 23.96768 | 265 ft | 20 kts | 37° |
| 2026-04-21 18:30 | 37.95291 | 23.96849 | 264 ft | 13 kts | 54° |
| 2026-04-21 18:30 | 37.95274 | 23.96957 | 263 ft | 15 kts | 145° |
| 2026-04-21 18:30 | 37.95177 | 23.96994 | 265 ft | 16 kts | 193° |
| 2026-04-21 18:31 | 37.95083 | 23.96916 | 267 ft | 17 kts | 216° |
| 2026-04-21 18:31 | 37.95018 | 23.96855 | 267 ft | 0 kts | 216° |
| 2026-04-21 18:31 | 37.95009 | 23.96847 | 268 ft | 11 kts | 218° |
| 2026-04-21 18:31 | 37.94798 | 23.96645 | 269 ft | 74 kts | 217° |
| 2026-04-21 18:32 | 37.94208 | 23.96087 | 275 ft | 134 kts | 217° |
| 2026-04-21 18:32 | 37.93351 | 23.95269 | 410 ft | 170 kts | 217° |
| 2026-04-21 18:32 | 37.92364 | 23.94347 | 977 ft | 178 kts | 215° |
| 2026-04-21 18:32 | 37.91281 | 23.93512 | 1546 ft | 195 kts | 209° |
| 2026-04-21 18:33 | 37.89997 | 23.92684 | 2092 ft | 219 kts | 207° |
| 2026-04-21 18:33 | 37.88562 | 23.91788 | 2799 ft | 237 kts | 208° |
| 2026-04-21 18:33 | 37.87064 | 23.90839 | 3805 ft | 243 kts | 208° |
| 2026-04-21 18:33 | 37.85544 | 23.89855 | 4853 ft | 248 kts | 209° |
| 2026-04-21 18:34 | 37.84009 | 23.88843 | 5964 ft | 249 kts | 210° |
| 2026-04-21 18:34 | 37.82470 | 23.87813 | 6956 ft | 252 kts | 211° |
| 2026-04-21 18:34 | 37.80912 | 23.86757 | 7926 ft | 255 kts | 211° |
| 2026-04-21 18:34 | 37.79340 | 23.85684 | 8911 ft | 258 kts | 212° |
| 2026-04-21 18:35 | 37.78250 | 23.84993 | 9558 ft | 262 kts | 204° |
| 2026-04-21 18:35 | 37.75805 | 23.84834 | 10647 ft | 279 kts | 166° |
| 2026-04-21 18:35 | 37.74124 | 23.86107 | 11429 ft | 291 kts | 134° |
| 2026-04-21 18:35 | 37.73017 | 23.88273 | 12214 ft | 297 kts | 119° |
| 2026-04-21 18:36 | 37.72052 | 23.90603 | 13015 ft | 302 kts | 118° |
| 2026-04-21 18:36 | 37.71086 | 23.92977 | 13780 ft | 307 kts | 118° |
| 2026-04-21 18:36 | 37.70104 | 23.95395 | 14480 ft | 312 kts | 118° |
| 2026-04-21 18:36 | 37.69097 | 23.97854 | 14874 ft | 317 kts | 119° |
| 2026-04-21 18:37 | 37.68074 | 24.00327 | 14987 ft | 318 kts | 119° |
| 2026-04-21 18:37 | 37.67046 | 24.02793 | 15009 ft | 317 kts | 119° |
| 2026-04-21 18:37 | 37.66019 | 24.05250 | 15012 ft | 317 kts | 119° |
| 2026-04-21 18:37 | 37.64992 | 24.07710 | 15006 ft | 317 kts | 119° |
| 2026-04-21 18:38 | 37.63962 | 24.10172 | 15016 ft | 317 kts | 119° |
| 2026-04-21 18:38 | 37.62936 | 24.12630 | 15016 ft | 317 kts | 119° |
| 2026-04-21 18:38 | 37.61906 | 24.15093 | 15017 ft | 317 kts | 119° |
| 2026-04-21 18:38 | 37.60875 | 24.17548 | 15016 ft | 317 kts | 119° |
| 2026-04-21 18:39 | 37.59844 | 24.20005 | 15019 ft | 317 kts | 119° |
| 2026-04-21 18:39 | 37.58811 | 24.22465 | 15019 ft | 317 kts | 119° |
| 2026-04-21 18:39 | 37.57781 | 24.24918 | 15019 ft | 317 kts | 119° |
| 2026-04-21 18:39 | 37.56751 | 24.27375 | 15019 ft | 317 kts | 119° |
| 2026-04-21 18:40 | 37.55748 | 24.29851 | 14880 ft | 318 kts | 114° |
| 2026-04-21 18:40 | 37.55031 | 24.32437 | 14639 ft | 316 kts | 108° |
| 2026-04-21 18:40 | 37.54578 | 24.34213 | 14478 ft | 315 kts | 108° |
| 2026-04-21 18:40 | 37.53688 | 24.37681 | 14162 ft | 313 kts | 108° |
| 2026-04-21 18:41 | 37.53015 | 24.40282 | 13928 ft | 311 kts | 108° |
| 2026-04-21 18:41 | 37.52341 | 24.42865 | 13685 ft | 309 kts | 108° |
| 2026-04-21 18:41 | 37.51670 | 24.45433 | 13413 ft | 308 kts | 108° |
| 2026-04-21 18:41 | 37.51002 | 24.47988 | 13156 ft | 306 kts | 108° |
| 2026-04-21 18:42 | 37.50340 | 24.50526 | 12897 ft | 304 kts | 108° |
| 2026-04-21 18:42 | 37.49679 | 24.53056 | 12599 ft | 305 kts | 108° |
| 2026-04-21 18:42 | 37.49020 | 24.55582 | 12282 ft | 303 kts | 108° |
| 2026-04-21 18:42 | 37.48364 | 24.58099 | 11973 ft | 302 kts | 108° |
| 2026-04-21 18:43 | 37.47711 | 24.60598 | 11677 ft | 300 kts | 108° |
| 2026-04-21 18:43 | 37.47057 | 24.63087 | 11379 ft | 298 kts | 108° |
| 2026-04-21 18:43 | 37.46406 | 24.65561 | 11085 ft | 297 kts | 108° |
| 2026-04-21 18:43 | 37.45759 | 24.68020 | 10793 ft | 295 kts | 108° |
| 2026-04-21 18:44 | 37.45113 | 24.70466 | 10502 ft | 294 kts | 108° |
| 2026-04-21 18:44 | 37.44471 | 24.72903 | 10211 ft | 293 kts | 108° |
| 2026-04-21 18:44 | 37.43830 | 24.75341 | 9850 ft | 294 kts | 108° |
| 2026-04-21 18:44 | 37.43184 | 24.77790 | 9412 ft | 297 kts | 108° |
| 2026-04-21 18:45 | 37.42530 | 24.80268 | 8905 ft | 298 kts | 108° |
| 2026-04-21 18:45 | 37.41880 | 24.82724 | 8390 ft | 295 kts | 108° |
| 2026-04-21 18:45 | 37.41234 | 24.85168 | 7887 ft | 295 kts | 108° |
| 2026-04-21 18:45 | 37.40586 | 24.87615 | 7395 ft | 295 kts | 109° |
| 2026-04-21 18:46 | 37.39937 | 24.90059 | 6910 ft | 295 kts | 108° |
| 2026-04-21 18:46 | 37.39288 | 24.92505 | 6422 ft | 294 kts | 108° |
| 2026-04-21 18:46 | 37.38646 | 24.94917 | 6072 ft | 283 kts | 109° |
| 2026-04-21 18:46 | 37.38053 | 24.97144 | 6025 ft | 261 kts | 109° |
| 2026-04-21 18:47 | 37.37485 | 24.99276 | 6033 ft | 257 kts | 109° |
| 2026-04-21 18:47 | 37.36917 | 25.01465 | 6036 ft | 263 kts | 104° |
| 2026-04-21 18:47 | 37.36711 | 25.03712 | 6035 ft | 263 kts | 86° |
| 2026-04-21 18:47 | 37.37015 | 25.05972 | 6036 ft | 262 kts | 70° |
| 2026-04-21 18:48 | 37.37565 | 25.08152 | 6034 ft | 262 kts | 70° |
| 2026-04-21 18:48 | 37.38107 | 25.10335 | 6035 ft | 262 kts | 70° |
| 2026-04-21 18:48 | 37.38646 | 25.12524 | 6035 ft | 262 kts | 70° |
| 2026-04-21 18:48 | 37.39191 | 25.14728 | 5743 ft | 266 kts | 71° |
| 2026-04-21 18:49 | 37.39738 | 25.16948 | 5421 ft | 265 kts | 71° |
| 2026-04-21 18:49 | 37.40282 | 25.19164 | 5100 ft | 265 kts | 71° |
| 2026-04-21 18:49 | 37.40641 | 25.20631 | 4887 ft | 265 kts | 71° |
| 2026-04-21 18:49 | 37.41366 | 25.23590 | 4450 ft | 264 kts | 72° |
| 2026-04-21 18:50 | 37.41905 | 25.25792 | 4125 ft | 263 kts | 72° |
| 2026-04-21 18:50 | 37.42456 | 25.27961 | 3795 ft | 257 kts | 68° |
| 2026-04-21 18:50 | 37.43431 | 25.29785 | 3493 ft | 249 kts | 41° |
| 2026-04-21 18:50 | 37.44878 | 25.30866 | 3245 ft | 238 kts | 15° |
| 2026-04-21 18:51 | 37.46494 | 25.31097 | 3010 ft | 233 kts | 351° |
| 2026-04-21 18:51 | 37.48023 | 25.30505 | 2831 ft | 230 kts | 327° |
| 2026-04-21 18:51 | 37.49122 | 25.29162 | 2657 ft | 216 kts | 294° |
| 2026-04-21 18:51 | 37.49739 | 25.27470 | 2476 ft | 212 kts | 300° |
| 2026-04-21 18:52 | 37.50876 | 25.26301 | 2364 ft | 218 kts | 338° |
| 2026-04-21 18:52 | 37.52354 | 25.26322 | 2336 ft | 216 kts | 23° |
| 2026-04-21 18:52 | 37.53401 | 25.27594 | 2335 ft | 212 kts | 70° |
| 2026-04-21 18:52 | 37.53450 | 25.29376 | 2335 ft | 205 kts | 116° |
| 2026-04-21 18:53 | 37.52528 | 25.30618 | 2264 ft | 194 kts | 163° |
| 2026-04-21 18:53 | 37.51222 | 25.30759 | 2196 ft | 189 kts | 185° |
| 2026-04-21 18:53 | 37.49921 | 25.30877 | 2135 ft | 185 kts | 171° |
| 2026-04-21 18:53 | 37.48711 | 25.31408 | 1978 ft | 183 kts | 156° |
| 2026-04-21 18:54 | 37.47642 | 25.32252 | 1820 ft | 179 kts | 150° |
| 2026-04-21 18:54 | 37.46661 | 25.33095 | 1685 ft | 164 kts | 150° |
| 2026-04-21 18:54 | 37.45779 | 25.33864 | 1531 ft | 148 kts | 150° |
| 2026-04-21 18:54 | 37.44952 | 25.34525 | 1461 ft | 139 kts | 156° |
| 2026-04-21 18:55 | 37.44378 | 25.34908 | 1414 ft | 138 kts | 158° |
| 2026-04-21 18:55 | 37.43241 | 25.35631 | 1328 ft | 138 kts | 158° |
| 2026-04-21 18:55 | 37.42380 | 25.36166 | 1251 ft | 138 kts | 158° |
| 2026-04-21 18:55 | 37.41511 | 25.36701 | 1183 ft | 141 kts | 157° |
| 2026-04-21 18:56 | 37.40591 | 25.37244 | 1351 ft | 155 kts | 159° |
| 2026-04-21 18:56 | 37.39556 | 25.37852 | 1489 ft | 172 kts | 159° |
| 2026-04-21 18:56 | 37.38473 | 25.38565 | 1751 ft | 180 kts | 147° |
| 2026-04-21 18:56 | 37.37500 | 25.39568 | 2056 ft | 181 kts | 148° |
| 2026-04-21 18:57 | 37.36447 | 25.40434 | 2361 ft | 181 kts | 151° |
| 2026-04-21 18:57 | 37.35453 | 25.41426 | 2649 ft | 187 kts | 130° |
| 2026-04-21 18:57 | 37.35072 | 25.43001 | 2915 ft | 196 kts | 90° |
| 2026-04-21 18:57 | 37.35533 | 25.44608 | 3195 ft | 199 kts | 56° |
| 2026-04-21 18:58 | 37.36324 | 25.46037 | 3450 ft | 199 kts | 54° |
| 2026-04-21 18:58 | 37.37111 | 25.47464 | 3505 ft | 198 kts | 54° |
| 2026-04-21 18:58 | 37.37893 | 25.48887 | 3511 ft | 197 kts | 55° |
| 2026-04-21 18:58 | 37.38669 | 25.50305 | 3515 ft | 197 kts | 55° |
| 2026-04-21 18:59 | 37.39444 | 25.51729 | 3517 ft | 197 kts | 55° |
| 2026-04-21 18:59 | 37.40216 | 25.53154 | 3516 ft | 197 kts | 55° |
| 2026-04-21 18:59 | 37.40991 | 25.54580 | 3516 ft | 198 kts | 55° |
| 2026-04-21 18:59 | 37.41767 | 25.56009 | 3519 ft | 198 kts | 55° |
| 2026-04-21 19:00 | 37.42575 | 25.57405 | 3512 ft | 197 kts | 45° |
| 2026-04-21 19:00 | 37.43787 | 25.58077 | 3518 ft | 193 kts | 359° |
| 2026-04-21 19:00 | 37.44991 | 25.57500 | 3523 ft | 186 kts | 315° |
| 2026-04-21 19:00 | 37.45854 | 25.56321 | 3520 ft | 185 kts | 309° |
| 2026-04-21 19:01 | 37.46708 | 25.55112 | 3521 ft | 185 kts | 309° |
| 2026-04-21 19:01 | 37.47562 | 25.53905 | 3518 ft | 184 kts | 309° |
| 2026-04-21 19:01 | 37.48415 | 25.52699 | 3516 ft | 184 kts | 309° |
| 2026-04-21 19:01 | 37.49268 | 25.51494 | 3514 ft | 184 kts | 309° |
| 2026-04-21 19:02 | 37.50122 | 25.50286 | 3535 ft | 185 kts | 308° |
| 2026-04-21 19:02 | 37.50786 | 25.48917 | 3535 ft | 183 kts | 290° |
| 2026-04-21 19:02 | 37.51070 | 25.47369 | 3536 ft | 181 kts | 273° |
| 2026-04-21 19:02 | 37.51068 | 25.45785 | 3535 ft | 181 kts | 268° |
| 2026-04-21 19:03 | 37.51059 | 25.44091 | 3514 ft | 210 kts | 269° |
| 2026-04-21 19:03 | 37.51053 | 25.42201 | 3364 ft | 216 kts | 269° |
| 2026-04-21 19:03 | 37.51046 | 25.40349 | 3463 ft | 211 kts | 269° |
| 2026-04-21 19:03 | 37.51036 | 25.38501 | 3477 ft | 210 kts | 269° |
| 2026-04-21 19:04 | 37.51029 | 25.36650 | 3306 ft | 213 kts | 269° |
| 2026-04-21 19:04 | 37.51022 | 25.34769 | 2937 ft | 216 kts | 268° |
| 2026-04-21 19:04 | 37.51012 | 25.32875 | 2622 ft | 223 kts | 268° |
| 2026-04-21 19:04 | 37.50693 | 25.30878 | 2383 ft | 232 kts | 239° |
| 2026-04-21 19:05 | 37.50001 | 25.29900 | 2155 ft | 222 kts | 211° |
| 2026-04-21 19:05 | 37.48582 | 25.29555 | 2138 ft | 209 kts | 169° |
| 2026-04-21 19:05 | 37.47308 | 25.30414 | 2136 ft | 210 kts | 144° |
| 2026-04-21 19:05 | 37.45823 | 25.31994 | 2135 ft | 209 kts | 142° |
| 2026-04-21 19:06 | 37.45093 | 25.32782 | 2134 ft | 208 kts | 142° |
| 2026-04-21 19:06 | 37.43893 | 25.33742 | 2132 ft | 204 kts | 161° |
| 2026-04-21 19:06 | 37.42522 | 25.33924 | 2132 ft | 199 kts | 196° |
| 2026-04-21 19:06 | 37.41372 | 25.33031 | 2131 ft | 198 kts | 232° |
| 2026-04-21 19:07 | 37.40903 | 25.31419 | 2136 ft | 202 kts | 268° |
| 2026-04-21 19:07 | 37.41320 | 25.29731 | 2137 ft | 209 kts | 304° |
| 2026-04-21 19:07 | 37.42415 | 25.28515 | 2143 ft | 213 kts | 326° |
| 2026-04-21 19:07 | 37.43815 | 25.27897 | 2139 ft | 217 kts | 354° |
| 2026-04-21 19:08 | 37.45328 | 25.28075 | 2144 ft | 220 kts | 7° |
| 2026-04-21 19:08 | 37.46837 | 25.28405 | 2137 ft | 221 kts | 8° |
| 2026-04-21 19:08 | 37.48348 | 25.28767 | 2134 ft | 221 kts | 13° |
| 2026-04-21 19:08 | 37.49758 | 25.29546 | 2136 ft | 222 kts | 23° |
| 2026-04-21 19:09 | 37.51246 | 25.29950 | 2137 ft | 220 kts | 1° |
| 2026-04-21 19:09 | 37.52724 | 25.30376 | 2122 ft | 221 kts | 32° |
| 2026-04-21 19:09 | 37.53649 | 25.31865 | 2134 ft | 219 kts | 77° |
| 2026-04-21 19:09 | 37.53543 | 25.33669 | 2102 ft | 209 kts | 121° |
| 2026-04-21 19:10 | 37.52512 | 25.34782 | 2104 ft | 193 kts | 170° |
| 2026-04-21 19:10 | 37.51201 | 25.34836 | 2159 ft | 192 kts | 185° |
| 2026-04-21 19:10 | 37.49898 | 25.34771 | 1980 ft | 185 kts | 185° |
| 2026-04-21 19:10 | 37.48631 | 25.34707 | 1710 ft | 177 kts | 183° |
| 2026-04-21 19:11 | 37.47446 | 25.34650 | 1465 ft | 166 kts | 184° |
| 2026-04-21 19:11 | 37.46344 | 25.34599 | 1146 ft | 152 kts | 184° |
| 2026-04-21 19:11 | 37.45329 | 25.34554 | 821 ft | 140 kts | 183° |
| 2026-04-21 19:11 | 37.44377 | 25.34522 | 519 ft | 135 kts | 179° |
| 2026-04-21 19:12 | 37.43488 | 25.34843 | 404 ft | 131 kts | 164° |
| 2026-04-21 19:12 | 37.42848 | 25.35100 | 409 ft | 37 kts | 160° |
| 2026-04-21 19:12 | 37.42809 | 25.35118 | 410 ft | 5 kts | 159° |
| 2026-04-21 19:12 | 37.42735 | 25.35135 | 409 ft | 17 kts | 184° |
| 2026-04-21 19:13 | 37.42695 | 25.35099 | 410 ft | 3 kts | 171° |
| 2026-04-21 19:13 | 37.42695 | 25.35129 | 410 ft | 4 kts | 76° |
| 2026-04-21 19:13 | 37.42720 | 25.35153 | 411 ft | 6 kts | 22° |
| 2026-04-21 19:13 | 37.42767 | 25.35154 | 408 ft | 7 kts | 337° |
| 2026-04-21 19:14 | 37.42822 | 25.35120 | 409 ft | 11 kts | 350° |
| 2026-04-21 19:14 | 37.42915 | 25.35092 | 407 ft | 16 kts | 338° |
| 2026-04-21 19:14 | 37.43028 | 25.35039 | 407 ft | 19 kts | 341° |
| 2026-04-21 19:14 | 37.43167 | 25.34978 | 404 ft | 24 kts | 341° |
| 2026-04-21 19:15 | 37.43313 | 25.34914 | 404 ft | 21 kts | 341° |
| 2026-04-21 19:15 | 37.43395 | 25.34842 | 404 ft | 14 kts | 299° |
| 2026-04-21 19:15 | 37.43436 | 25.34754 | 405 ft | 5 kts | 309° |
| 2026-04-21 19:15 | 37.43465 | 25.34734 | 406 ft | 5 kts | 332° |
| 2026-04-21 19:16 | 37.43501 | 25.34714 | 407 ft | 6 kts | 338° |
| 2026-04-21 19:16 | 37.43521 | 25.34688 | 408 ft | 4 kts | 282° |
| 2026-04-21 19:16 | 37.43514 | 25.34654 | 409 ft | 4 kts | 246° |
| 2026-04-21 19:16 | 37.43511 | 25.34643 | 409 ft | 0 kts | 246° |